KMOB

Mobile Regional Airport

Mobile, Alabama, USA
METAR KMOB 172356Z 01009KT 10SM OVC011 22/19 A3021 RMK AO2 SLP226 T02220194 10272 20222 53012
Observed Flight Rules
Oct-17 @ 23:56 UTC (48 minutes ago) Marginal Visual Flight Rules
Wind Visibility Clouds
10° at 9 knots 10 miles
  • Overcast at 1,100' AGL
Temperatures Readings
Current 22°C / 72°F
Dewpoint 19°C / 66°F
Humidity 83%
Altimeter 30.21" Hg
Pressure 1022.6 hPa
Elevation 63
METAR KMOB 172356Z 01009KT 10SM OVC011 22/19 A3021 RMK AO2 SLP226 T02220194 10272 20222 53012
Observed Flight Rules
Oct-17 @ 23:56 UTC
(48 minutes ago)
MVFR
Wind Visibility
10° at 9 knots 10 miles
Clouds
  • Overcast at 1,100' AGL
Temperature Dewpoint
22°C / 72°F 19°C / 66°F
Humidity Altimeter Pressure
83% 30.21" Hg 1022.6 hPa